BAW18B TXKF-EGLL
Flight info
| Callsign | BAW18B |
|---|---|
| Flight time | N/A |
| Altitude | 39000 |
| Route | SOMRR1 BALOO DCT 3530N06000W 39N050W 42N040W 45N030W 47N020W 48N015W DCT OMOKO DCT GUNSO DCT GAPLI/N0469F390 DCT SIDDI DCT DAWLY DCT ELRIP DCT OTMET |
| Aircraft | B772/H-SDE2E3FGHIJ5LORVWXY/LB1D1 |
Departure
| Time | 2026-04-25 12:01 |
|---|---|
| Airport | L.F. Wade International Airport (TXKF) |
Arrival
| Time | N/A |
|---|---|
| Airport | London Heathrow Airport (EGLL) |
| Time | Latitude | Longitude | Altitude | Speed | Heading |
|---|---|---|---|---|---|
| 2026-04-25 11:43 | 32.36267 | -64.70324 | 10 ft | 0 kts | 250° |
| 2026-04-25 11:51 | 32.36269 | -64.70318 | 10 ft | 3 kts | 249° |
| 2026-04-25 11:51 | 32.36277 | -64.70293 | 11 ft | 3 kts | 249° |
| 2026-04-25 11:51 | 32.36287 | -64.70268 | 12 ft | 3 kts | 218° |
| 2026-04-25 11:51 | 32.36307 | -64.70258 | 12 ft | 3 kts | 169° |
| 2026-04-25 11:52 | 32.36318 | -64.70259 | 13 ft | 3 kts | 135° |
| 2026-04-25 11:52 | 32.36304 | -64.70239 | 9 ft | 3 kts | 129° |
| 2026-04-25 11:52 | 32.36303 | -64.70237 | 9 ft | 0 kts | 129° |
| 2026-04-25 11:54 | 32.36279 | -64.70201 | 9 ft | 9 kts | 127° |
| 2026-04-25 11:54 | 32.36279 | -64.70127 | 9 ft | 10 kts | 69° |
| 2026-04-25 11:54 | 32.36346 | -64.69939 | 9 ft | 15 kts | 67° |
| 2026-04-25 11:55 | 32.36387 | -64.69822 | 9 ft | 16 kts | 68° |
| 2026-04-25 11:55 | 32.36416 | -64.69739 | 9 ft | 17 kts | 67° |
| 2026-04-25 11:55 | 32.36464 | -64.69605 | 9 ft | 18 kts | 67° |
| 2026-04-25 11:55 | 32.36533 | -64.69411 | 10 ft | 20 kts | 67° |
| 2026-04-25 11:56 | 32.36570 | -64.69310 | 9 ft | 21 kts | 66° |
| 2026-04-25 11:56 | 32.36626 | -64.69149 | 8 ft | 22 kts | 68° |
| 2026-04-25 11:56 | 32.36685 | -64.68982 | 9 ft | 22 kts | 67° |
| 2026-04-25 11:56 | 32.36707 | -64.68808 | 9 ft | 22 kts | 102° |
| 2026-04-25 11:57 | 32.36676 | -64.68630 | 9 ft | 22 kts | 101° |
| 2026-04-25 11:57 | 32.36647 | -64.68452 | 9 ft | 22 kts | 101° |
| 2026-04-25 11:57 | 32.36617 | -64.68275 | 11 ft | 22 kts | 101° |
| 2026-04-25 11:57 | 32.36586 | -64.68098 | 9 ft | 22 kts | 102° |
| 2026-04-25 11:58 | 32.36554 | -64.67921 | 9 ft | 22 kts | 101° |
| 2026-04-25 11:58 | 32.36524 | -64.67745 | 9 ft | 22 kts | 101° |
| 2026-04-25 11:58 | 32.36493 | -64.67568 | 9 ft | 22 kts | 101° |
| 2026-04-25 11:58 | 32.36463 | -64.67390 | 9 ft | 22 kts | 101° |
| 2026-04-25 11:59 | 32.36432 | -64.67213 | 10 ft | 22 kts | 101° |
| 2026-04-25 11:59 | 32.36402 | -64.67035 | 12 ft | 22 kts | 101° |
| 2026-04-25 11:59 | 32.36372 | -64.66860 | 11 ft | 22 kts | 101° |
| 2026-04-25 12:00 | 32.36310 | -64.66504 | 11 ft | 22 kts | 108° |
| 2026-04-25 12:00 | 32.36266 | -64.66368 | 11 ft | 15 kts | 114° |
| 2026-04-25 12:00 | 32.36149 | -64.66388 | 12 ft | 9 kts | 278° |
| 2026-04-25 12:01 | 32.36184 | -64.66591 | 12 ft | 52 kts | 281° |
| 2026-04-25 12:01 | 32.36309 | -64.67313 | 8 ft | 124 kts | 281° |
| 2026-04-25 12:01 | 32.36516 | -64.68484 | 323 ft | 152 kts | 282° |
| 2026-04-25 12:01 | 32.36753 | -64.69746 | 974 ft | 159 kts | 284° |
| 2026-04-25 12:02 | 32.37243 | -64.72487 | 1893 ft | 198 kts | 283° |
| 2026-04-25 12:02 | 32.37515 | -64.74123 | 2467 ft | 207 kts | 283° |
| 2026-04-25 12:02 | 32.37792 | -64.75800 | 3180 ft | 208 kts | 282° |
| 2026-04-25 12:03 | 32.38086 | -64.77547 | 3550 ft | 226 kts | 284° |
| 2026-04-25 12:03 | 32.38815 | -64.79227 | 3908 ft | 239 kts | 316° |
| 2026-04-25 12:03 | 32.40338 | -64.80063 | 4573 ft | 250 kts | 345° |
| 2026-04-25 12:03 | 32.42115 | -64.80105 | 5172 ft | 261 kts | 359° |
| 2026-04-25 12:04 | 32.43899 | -64.79831 | 5936 ft | 262 kts | 3° |
| 2026-04-25 12:04 | 32.45706 | -64.79415 | 6602 ft | 267 kts | 4° |
| 2026-04-25 12:04 | 32.47539 | -64.78974 | 7221 ft | 270 kts | 4° |
| 2026-04-25 12:04 | 32.49393 | -64.78535 | 7854 ft | 273 kts | 4° |
| 2026-04-25 12:05 | 32.51269 | -64.78097 | 8474 ft | 275 kts | 5° |
| 2026-04-25 12:05 | 32.53117 | -64.77440 | 8918 ft | 288 kts | 24° |
| 2026-04-25 12:05 | 32.54638 | -64.75800 | 9386 ft | 300 kts | 45° |
| 2026-04-25 12:05 | 32.55988 | -64.73865 | 9890 ft | 305 kts | 44° |
| 2026-04-25 12:06 | 32.57363 | -64.71926 | 10303 ft | 314 kts | 45° |
| 2026-04-25 12:06 | 32.58804 | -64.69906 | 10453 ft | 334 kts | 45° |
| 2026-04-25 12:06 | 32.60349 | -64.67740 | 10636 ft | 353 kts | 45° |
| 2026-04-25 12:06 | 32.61959 | -64.65476 | 11096 ft | 364 kts | 45° |
| 2026-04-25 12:07 | 32.63610 | -64.63152 | 11732 ft | 371 kts | 46° |
| 2026-04-25 12:07 | 32.65286 | -64.60792 | 12583 ft | 375 kts | 46° |
| 2026-04-25 12:07 | 32.66977 | -64.58413 | 13474 ft | 378 kts | 46° |
| 2026-04-25 12:07 | 32.68682 | -64.56016 | 14254 ft | 382 kts | 46° |
| 2026-04-25 12:08 | 32.70392 | -64.53613 | 14931 ft | 388 kts | 46° |
| 2026-04-25 12:08 | 32.72152 | -64.51141 | 15632 ft | 394 kts | 46° |
| 2026-04-25 12:08 | 32.73947 | -64.48658 | 16339 ft | 398 kts | 45° |
| 2026-04-25 12:08 | 32.75777 | -64.46161 | 17038 ft | 403 kts | 45° |
| 2026-04-25 12:09 | 32.77641 | -64.43626 | 17685 ft | 410 kts | 45° |
| 2026-04-25 12:09 | 32.79537 | -64.41046 | 18259 ft | 417 kts | 45° |
| 2026-04-25 12:09 | 32.81454 | -64.38429 | 18859 ft | 421 kts | 45° |
| 2026-04-25 12:09 | 32.83361 | -64.35819 | 19463 ft | 423 kts | 45° |
| 2026-04-25 12:10 | 32.85303 | -64.33158 | 20026 ft | 428 kts | 45° |
| 2026-04-25 12:10 | 32.87263 | -64.30468 | 20570 ft | 432 kts | 45° |
| 2026-04-25 12:10 | 32.89236 | -64.27758 | 21127 ft | 436 kts | 45° |
| 2026-04-25 12:10 | 32.91231 | -64.25017 | 21672 ft | 440 kts | 44° |
| 2026-04-25 12:11 | 32.93242 | -64.22250 | 22214 ft | 444 kts | 44° |
| 2026-04-25 12:11 | 32.95270 | -64.19457 | 22766 ft | 448 kts | 44° |
| 2026-04-25 12:11 | 32.97314 | -64.16640 | 23329 ft | 451 kts | 44° |
| 2026-04-25 12:11 | 32.99382 | -64.13789 | 23823 ft | 454 kts | 44° |
| 2026-04-25 12:12 | 33.01427 | -64.10968 | 24299 ft | 456 kts | 44° |
| 2026-04-25 12:12 | 33.02805 | -64.09067 | 24642 ft | 457 kts | 44° |
| 2026-04-25 12:12 | 33.05607 | -64.05196 | 25281 ft | 461 kts | 44° |
| 2026-04-25 12:12 | 33.07710 | -64.02292 | 25695 ft | 465 kts | 44° |
| 2026-04-25 12:13 | 33.09808 | -63.99392 | 26113 ft | 469 kts | 44° |
| 2026-04-25 12:13 | 33.11949 | -63.96427 | 26586 ft | 470 kts | 44° |
| 2026-04-25 12:13 | 33.14082 | -63.93469 | 27085 ft | 472 kts | 44° |
| 2026-04-25 12:13 | 33.16233 | -63.90484 | 27577 ft | 474 kts | 43° |
| 2026-04-25 12:14 | 33.18390 | -63.87487 | 28057 ft | 476 kts | 43° |
| 2026-04-25 12:14 | 33.20555 | -63.84478 | 28513 ft | 478 kts | 43° |